sensor_id;sensor_type;location;lat;lon;timestamp;temperature;humidity
909;DHT22;441;51.192;6.788;2023-09-19T00:00:16;24.20;94.80
909;DHT22;441;51.192;6.788;2023-09-19T00:02:46;24.20;94.80
909;DHT22;441;51.192;6.788;2023-09-19T00:05:13;24.10;94.70
909;DHT22;441;51.192;6.788;2023-09-19T00:07:40;24.10;94.70
909;DHT22;441;51.192;6.788;2023-09-19T00:10:08;24.10;94.70
909;DHT22;441;51.192;6.788;2023-09-19T00:12:36;24.10;94.50
909;DHT22;441;51.192;6.788;2023-09-19T00:15:03;24.10;94.50
909;DHT22;441;51.192;6.788;2023-09-19T00:17:32;24.10;94.60
909;DHT22;441;51.192;6.788;2023-09-19T00:20:01;24.10;94.50
909;DHT22;441;51.192;6.788;2023-09-19T00:22:32;24.10;94.50
909;DHT22;441;51.192;6.788;2023-09-19T00:24:59;24.10;94.50
909;DHT22;441;51.192;6.788;2023-09-19T00:27:28;24.10;94.40
909;DHT22;441;51.192;6.788;2023-09-19T00:29:55;24.00;94.20
909;DHT22;441;51.192;6.788;2023-09-19T00:32:22;24.00;94.10
909;DHT22;441;51.192;6.788;2023-09-19T00:34:49;24.00;94.10
909;DHT22;441;51.192;6.788;2023-09-19T00:37:17;24.00;94.00
909;DHT22;441;51.192;6.788;2023-09-19T00:39:45;24.00;94.00
909;DHT22;441;51.192;6.788;2023-09-19T00:42:18;24.00;94.00
909;DHT22;441;51.192;6.788;2023-09-19T00:44:46;23.90;94.00
909;DHT22;441;51.192;6.788;2023-09-19T00:47:16;23.90;93.90
909;DHT22;441;51.192;6.788;2023-09-19T00:49:44;23.90;93.90
909;DHT22;441;51.192;6.788;2023-09-19T00:52:14;23.90;93.90
909;DHT22;441;51.192;6.788;2023-09-19T00:54:46;23.90;93.80
909;DHT22;441;51.192;6.788;2023-09-19T00:57:13;23.90;93.70
909;DHT22;441;51.192;6.788;2023-09-19T00:59:43;23.90;93.70
909;DHT22;441;51.192;6.788;2023-09-19T01:02:10;23.90;93.70
909;DHT22;441;51.192;6.788;2023-09-19T01:04:40;23.90;93.60
909;DHT22;441;51.192;6.788;2023-09-19T01:07:08;23.90;93.60
909;DHT22;441;51.192;6.788;2023-09-19T01:09:36;23.90;93.50
909;DHT22;441;51.192;6.788;2023-09-19T01:12:07;23.80;93.40
909;DHT22;441;51.192;6.788;2023-09-19T01:14:42;23.80;93.40
909;DHT22;441;51.192;6.788;2023-09-19T01:17:17;23.80;93.40
909;DHT22;441;51.192;6.788;2023-09-19T01:20:15;23.80;93.40
909;DHT22;441;51.192;6.788;2023-09-19T01:22:53;23.80;93.40
909;DHT22;441;51.192;6.788;2023-09-19T01:25:56;23.80;93.40
909;DHT22;441;51.192;6.788;2023-09-19T01:28:35;23.80;93.30
909;DHT22;441;51.192;6.788;2023-09-19T01:31:10;23.80;93.40
909;DHT22;441;51.192;6.788;2023-09-19T01:33:58;23.70;93.30
909;DHT22;441;51.192;6.788;2023-09-19T01:36:30;23.70;93.30
909;DHT22;441;51.192;6.788;2023-09-19T01:39:00;23.70;93.20
909;DHT22;441;51.192;6.788;2023-09-19T01:41:52;23.70;93.10
909;DHT22;441;51.192;6.788;2023-09-19T01:44:29;23.70;93.10
909;DHT22;441;51.192;6.788;2023-09-19T01:47:04;23.70;93.10
909;DHT22;441;51.192;6.788;2023-09-19T01:49:40;23.70;93.10
909;DHT22;441;51.192;6.788;2023-09-19T01:52:12;23.70;93.10
909;DHT22;441;51.192;6.788;2023-09-19T01:54:46;23.70;93.10
909;DHT22;441;51.192;6.788;2023-09-19T01:57:20;23.60;93.00
909;DHT22;441;51.192;6.788;2023-09-19T01:59:52;23.60;93.00
909;DHT22;441;51.192;6.788;2023-09-19T02:02:23;23.70;93.10
909;DHT22;441;51.192;6.788;2023-09-19T02:04:51;23.60;93.00
909;DHT22;441;51.192;6.788;2023-09-19T02:07:19;23.60;92.90
909;DHT22;441;51.192;6.788;2023-09-19T02:09:46;23.60;92.90
909;DHT22;441;51.192;6.788;2023-09-19T02:12:13;23.60;92.90
909;DHT22;441;51.192;6.788;2023-09-19T02:14:40;23.60;92.90
909;DHT22;441;51.192;6.788;2023-09-19T02:17:07;23.60;92.80
909;DHT22;441;51.192;6.788;2023-09-19T02:19:38;23.60;92.80
909;DHT22;441;51.192;6.788;2023-09-19T02:22:06;23.60;92.80
909;DHT22;441;51.192;6.788;2023-09-19T02:24:36;23.60;92.60
909;DHT22;441;51.192;6.788;2023-09-19T02:27:03;23.50;92.60
909;DHT22;441;51.192;6.788;2023-09-19T02:29:31;23.50;92.60
909;DHT22;441;51.192;6.788;2023-09-19T02:31:59;23.50;92.60
909;DHT22;441;51.192;6.788;2023-09-19T02:34:27;23.50;92.50
909;DHT22;441;51.192;6.788;2023-09-19T02:36:55;23.50;92.40
909;DHT22;441;51.192;6.788;2023-09-19T02:39:22;23.50;92.40
909;DHT22;441;51.192;6.788;2023-09-19T02:41:50;23.50;92.30
909;DHT22;441;51.192;6.788;2023-09-19T02:44:17;23.50;92.10
909;DHT22;441;51.192;6.788;2023-09-19T02:46:45;23.50;92.10
909;DHT22;441;51.192;6.788;2023-09-19T02:49:12;23.50;92.00
909;DHT22;441;51.192;6.788;2023-09-19T02:51:40;23.50;92.00
909;DHT22;441;51.192;6.788;2023-09-19T02:54:08;23.40;91.90
909;DHT22;441;51.192;6.788;2023-09-19T02:56:36;23.40;91.80
909;DHT22;441;51.192;6.788;2023-09-19T02:59:03;23.40;91.80
909;DHT22;441;51.192;6.788;2023-09-19T03:01:31;23.50;91.80
909;DHT22;441;51.192;6.788;2023-09-19T03:03:59;23.40;91.70
909;DHT22;441;51.192;6.788;2023-09-19T03:06:26;23.40;91.70
909;DHT22;441;51.192;6.788;2023-09-19T03:08:53;23.40;91.70
909;DHT22;441;51.192;6.788;2023-09-19T03:11:23;23.40;91.40
909;DHT22;441;51.192;6.788;2023-09-19T03:13:51;23.40;91.40
909;DHT22;441;51.192;6.788;2023-09-19T03:16:19;23.40;91.30
909;DHT22;441;51.192;6.788;2023-09-19T03:18:47;23.40;91.30
909;DHT22;441;51.192;6.788;2023-09-19T03:21:14;23.40;91.30
909;DHT22;441;51.192;6.788;2023-09-19T03:23:42;23.40;91.30
909;DHT22;441;51.192;6.788;2023-09-19T03:26:11;23.40;91.20
909;DHT22;441;51.192;6.788;2023-09-19T03:28:42;23.30;91.20
909;DHT22;441;51.192;6.788;2023-09-19T03:31:11;23.40;91.20
909;DHT22;441;51.192;6.788;2023-09-19T03:33:38;23.30;91.10
909;DHT22;441;51.192;6.788;2023-09-19T03:36:06;23.30;91.00
909;DHT22;441;51.192;6.788;2023-09-19T03:38:33;23.30;91.00
909;DHT22;441;51.192;6.788;2023-09-19T03:41:00;23.30;90.90
909;DHT22;441;51.192;6.788;2023-09-19T03:43:27;23.30;90.90
909;DHT22;441;51.192;6.788;2023-09-19T03:45:56;23.30;90.90
909;DHT22;441;51.192;6.788;2023-09-19T03:48:23;23.30;90.80
909;DHT22;441;51.192;6.788;2023-09-19T03:50:49;23.20;90.70
909;DHT22;441;51.192;6.788;2023-09-19T03:53:16;23.30;90.70
909;DHT22;441;51.192;6.788;2023-09-19T03:55:45;23.30;90.70
909;DHT22;441;51.192;6.788;2023-09-19T03:58:12;23.30;90.70
909;DHT22;441;51.192;6.788;2023-09-19T04:00:39;23.20;90.60
909;DHT22;441;51.192;6.788;2023-09-19T04:03:08;23.20;90.60
909;DHT22;441;51.192;6.788;2023-09-19T04:05:36;23.20;90.50
909;DHT22;441;51.192;6.788;2023-09-19T04:08:03;23.20;90.50
909;DHT22;441;51.192;6.788;2023-09-19T04:10:30;23.20;90.40
909;DHT22;441;51.192;6.788;2023-09-19T04:12:57;23.20;90.40
909;DHT22;441;51.192;6.788;2023-09-19T04:15:24;23.20;90.40
909;DHT22;441;51.192;6.788;2023-09-19T04:17:51;23.20;90.40
909;DHT22;441;51.192;6.788;2023-09-19T04:20:19;23.20;90.40
909;DHT22;441;51.192;6.788;2023-09-19T04:22:48;23.20;90.30
909;DHT22;441;51.192;6.788;2023-09-19T04:25:15;23.20;90.30
909;DHT22;441;51.192;6.788;2023-09-19T04:27:42;23.10;90.20
909;DHT22;441;51.192;6.788;2023-09-19T04:30:11;23.20;90.20
909;DHT22;441;51.192;6.788;2023-09-19T04:32:38;23.10;90.30
909;DHT22;441;51.192;6.788;2023-09-19T04:35:07;23.10;90.10
909;DHT22;441;51.192;6.788;2023-09-19T04:37:37;23.10;89.70
909;DHT22;441;51.192;6.788;2023-09-19T04:40:06;23.00;89.20
909;DHT22;441;51.192;6.788;2023-09-19T04:42:38;22.90;89.50
909;DHT22;441;51.192;6.788;2023-09-19T04:45:06;23.00;89.70
909;DHT22;441;51.192;6.788;2023-09-19T04:47:34;22.90;89.80
909;DHT22;441;51.192;6.788;2023-09-19T04:50:01;23.00;90.00
909;DHT22;441;51.192;6.788;2023-09-19T04:52:30;23.00;90.00
909;DHT22;441;51.192;6.788;2023-09-19T04:54:59;23.00;90.00
909;DHT22;441;51.192;6.788;2023-09-19T04:57:26;22.90;89.60
909;DHT22;441;51.192;6.788;2023-09-19T04:59:53;23.00;89.70
909;DHT22;441;51.192;6.788;2023-09-19T05:02:20;23.00;89.60
909;DHT22;441;51.192;6.788;2023-09-19T05:04:47;23.00;89.70
909;DHT22;441;51.192;6.788;2023-09-19T05:07:14;23.00;89.70
909;DHT22;441;51.192;6.788;2023-09-19T05:09:42;22.90;89.50
909;DHT22;441;51.192;6.788;2023-09-19T05:12:10;22.90;89.50
909;DHT22;441;51.192;6.788;2023-09-19T05:14:37;22.90;89.60
909;DHT22;441;51.192;6.788;2023-09-19T05:17:06;22.90;89.60
909;DHT22;441;51.192;6.788;2023-09-19T05:19:33;22.90;89.60
909;DHT22;441;51.192;6.788;2023-09-19T05:22:00;22.90;89.60
909;DHT22;441;51.192;6.788;2023-09-19T05:24:29;22.90;89.50
909;DHT22;441;51.192;6.788;2023-09-19T05:26:56;22.90;89.30
909;DHT22;441;51.192;6.788;2023-09-19T05:29:25;22.90;89.30
909;DHT22;441;51.192;6.788;2023-09-19T05:31:52;22.90;89.20
909;DHT22;441;51.192;6.788;2023-09-19T05:34:20;22.90;89.10
909;DHT22;441;51.192;6.788;2023-09-19T05:36:47;22.90;89.10
909;DHT22;441;51.192;6.788;2023-09-19T05:39:14;22.90;89.00
909;DHT22;441;51.192;6.788;2023-09-19T05:41:41;22.90;88.90
909;DHT22;441;51.192;6.788;2023-09-19T05:44:08;22.90;88.80
909;DHT22;441;51.192;6.788;2023-09-19T05:46:36;22.90;88.70
909;DHT22;441;51.192;6.788;2023-09-19T05:49:03;22.90;88.60
909;DHT22;441;51.192;6.788;2023-09-19T05:51:30;22.80;88.50
909;DHT22;441;51.192;6.788;2023-09-19T05:53:57;22.90;88.60
909;DHT22;441;51.192;6.788;2023-09-19T05:56:24;22.90;88.50
909;DHT22;441;51.192;6.788;2023-09-19T05:58:51;22.80;88.50
909;DHT22;441;51.192;6.788;2023-09-19T06:01:18;22.80;88.50
909;DHT22;441;51.192;6.788;2023-09-19T06:03:47;22.80;88.50
909;DHT22;441;51.192;6.788;2023-09-19T06:06:14;22.80;88.50
909;DHT22;441;51.192;6.788;2023-09-19T06:08:41;22.80;88.40
909;DHT22;441;51.192;6.788;2023-09-19T06:11:09;22.80;88.40
909;DHT22;441;51.192;6.788;2023-09-19T06:13:37;22.80;88.30
909;DHT22;441;51.192;6.788;2023-09-19T06:16:05;22.80;88.30
909;DHT22;441;51.192;6.788;2023-09-19T06:18:31;22.80;88.40
909;DHT22;441;51.192;6.788;2023-09-19T06:21:01;22.80;88.40
909;DHT22;441;51.192;6.788;2023-09-19T06:23:31;22.80;88.40
909;DHT22;441;51.192;6.788;2023-09-19T06:25:57;22.80;88.50
909;DHT22;441;51.192;6.788;2023-09-19T06:28:24;22.80;88.40
909;DHT22;441;51.192;6.788;2023-09-19T06:30:53;22.80;88.40
909;DHT22;441;51.192;6.788;2023-09-19T06:33:20;22.80;88.40
909;DHT22;441;51.192;6.788;2023-09-19T06:35:48;22.80;88.40
909;DHT22;441;51.192;6.788;2023-09-19T06:38:18;22.80;88.40
909;DHT22;441;51.192;6.788;2023-09-19T06:40:45;22.80;88.60
909;DHT22;441;51.192;6.788;2023-09-19T06:43:12;22.80;88.60
909;DHT22;441;51.192;6.788;2023-09-19T06:45:39;22.70;88.50
909;DHT22;441;51.192;6.788;2023-09-19T06:48:08;22.70;88.60
909;DHT22;441;51.192;6.788;2023-09-19T06:50:35;22.80;88.80
909;DHT22;441;51.192;6.788;2023-09-19T06:53:03;22.70;89.50
909;DHT22;441;51.192;6.788;2023-09-19T06:55:31;22.70;88.60
909;DHT22;441;51.192;6.788;2023-09-19T06:57:58;22.70;88.60
909;DHT22;441;51.192;6.788;2023-09-19T07:00:25;22.70;88.80
909;DHT22;441;51.192;6.788;2023-09-19T07:02:57;22.70;88.90
909;DHT22;441;51.192;6.788;2023-09-19T07:05:26;22.70;89.00
909;DHT22;441;51.192;6.788;2023-09-19T07:07:54;22.70;89.00
909;DHT22;441;51.192;6.788;2023-09-19T07:10:22;22.70;89.20
909;DHT22;441;51.192;6.788;2023-09-19T07:12:56;22.70;89.20
909;DHT22;441;51.192;6.788;2023-09-19T07:15:24;22.70;89.30
909;DHT22;441;51.192;6.788;2023-09-19T07:17:51;22.70;89.40
909;DHT22;441;51.192;6.788;2023-09-19T07:20:19;22.70;89.50
909;DHT22;441;51.192;6.788;2023-09-19T07:22:46;22.70;89.50
909;DHT22;441;51.192;6.788;2023-09-19T07:25:14;22.70;89.60
909;DHT22;441;51.192;6.788;2023-09-19T07:27:41;22.70;89.60
909;DHT22;441;51.192;6.788;2023-09-19T07:30:10;22.70;89.80
909;DHT22;441;51.192;6.788;2023-09-19T07:32:38;22.70;89.80
909;DHT22;441;51.192;6.788;2023-09-19T07:35:06;22.70;90.00
909;DHT22;441;51.192;6.788;2023-09-19T07:37:34;22.70;90.00
909;DHT22;441;51.192;6.788;2023-09-19T07:40:01;22.70;90.00
909;DHT22;441;51.192;6.788;2023-09-19T07:42:32;22.70;90.00
909;DHT22;441;51.192;6.788;2023-09-19T07:45:02;22.70;90.10
909;DHT22;441;51.192;6.788;2023-09-19T07:47:31;22.70;90.10
909;DHT22;441;51.192;6.788;2023-09-19T07:49:58;22.70;90.10
909;DHT22;441;51.192;6.788;2023-09-19T07:52:26;22.70;90.10
909;DHT22;441;51.192;6.788;2023-09-19T07:54:53;22.70;90.10
909;DHT22;441;51.192;6.788;2023-09-19T07:57:20;22.70;90.10
909;DHT22;441;51.192;6.788;2023-09-19T07:59:47;22.70;90.10
909;DHT22;441;51.192;6.788;2023-09-19T08:02:14;22.60;90.10
909;DHT22;441;51.192;6.788;2023-09-19T08:04:44;22.70;90.10
909;DHT22;441;51.192;6.788;2023-09-19T08:07:12;22.70;90.20
909;DHT22;441;51.192;6.788;2023-09-19T08:09:39;22.70;90.20
909;DHT22;441;51.192;6.788;2023-09-19T08:12:06;22.70;90.20
909;DHT22;441;51.192;6.788;2023-09-19T08:14:36;22.60;90.20
909;DHT22;441;51.192;6.788;2023-09-19T08:17:03;22.60;90.10
909;DHT22;441;51.192;6.788;2023-09-19T08:19:31;22.60;90.10
909;DHT22;441;51.192;6.788;2023-09-19T08:21:59;22.60;90.10
909;DHT22;441;51.192;6.788;2023-09-19T08:24:27;22.70;90.20
909;DHT22;441;51.192;6.788;2023-09-19T08:26:55;22.60;90.10
909;DHT22;441;51.192;6.788;2023-09-19T08:29:22;22.60;90.10
909;DHT22;441;51.192;6.788;2023-09-19T08:31:53;22.70;90.20
909;DHT22;441;51.192;6.788;2023-09-19T08:34:21;22.60;90.20
909;DHT22;441;51.192;6.788;2023-09-19T08:36:50;22.60;90.20
909;DHT22;441;51.192;6.788;2023-09-19T08:39:19;22.60;90.30
909;DHT22;441;51.192;6.788;2023-09-19T08:41:46;22.60;90.30
909;DHT22;441;51.192;6.788;2023-09-19T08:44:13;22.60;90.30
909;DHT22;441;51.192;6.788;2023-09-19T08:46:41;22.60;90.30
909;DHT22;441;51.192;6.788;2023-09-19T08:49:13;22.60;90.30
909;DHT22;441;51.192;6.788;2023-09-19T08:51:45;22.60;90.30
909;DHT22;441;51.192;6.788;2023-09-19T08:54:21;22.60;90.30
909;DHT22;441;51.192;6.788;2023-09-19T08:56:50;22.60;90.30
909;DHT22;441;51.192;6.788;2023-09-19T08:59:21;22.60;90.40
909;DHT22;441;51.192;6.788;2023-09-19T09:01:51;22.60;90.40
909;DHT22;441;51.192;6.788;2023-09-19T09:04:19;22.60;90.30
909;DHT22;441;51.192;6.788;2023-09-19T09:06:46;22.60;90.30
909;DHT22;441;51.192;6.788;2023-09-19T09:09:19;22.60;90.20
909;DHT22;441;51.192;6.788;2023-09-19T09:11:48;22.60;90.10
909;DHT22;441;51.192;6.788;2023-09-19T09:14:17;22.60;90.10
909;DHT22;441;51.192;6.788;2023-09-19T09:16:45;22.60;90.10
909;DHT22;441;51.192;6.788;2023-09-19T09:19:14;22.60;90.00
909;DHT22;441;51.192;6.788;2023-09-19T09:21:49;22.60;90.00
909;DHT22;441;51.192;6.788;2023-09-19T09:24:29;22.60;89.90
909;DHT22;441;51.192;6.788;2023-09-19T09:27:02;22.60;89.80
909;DHT22;441;51.192;6.788;2023-09-19T09:29:43;22.60;89.80
909;DHT22;441;51.192;6.788;2023-09-19T09:32:20;22.60;89.80
909;DHT22;441;51.192;6.788;2023-09-19T09:34:49;22.60;89.90
909;DHT22;441;51.192;6.788;2023-09-19T09:37:16;22.50;89.60
909;DHT22;441;51.192;6.788;2023-09-19T09:39:55;22.60;89.40
909;DHT22;441;51.192;6.788;2023-09-19T09:42:32;22.50;89.40
909;DHT22;441;51.192;6.788;2023-09-19T09:45:22;22.50;89.50
909;DHT22;441;51.192;6.788;2023-09-19T09:47:54;22.50;89.60
909;DHT22;441;51.192;6.788;2023-09-19T09:50:25;22.60;89.70
909;DHT22;441;51.192;6.788;2023-09-19T09:52:55;22.60;89.80
909;DHT22;441;51.192;6.788;2023-09-19T09:55:57;22.60;89.80
909;DHT22;441;51.192;6.788;2023-09-19T09:58:26;22.60;89.80
909;DHT22;441;51.192;6.788;2023-09-19T10:00:56;22.60;89.70
909;DHT22;441;51.192;6.788;2023-09-19T10:03:31;22.60;89.60
909;DHT22;441;51.192;6.788;2023-09-19T10:06:00;22.60;89.40
909;DHT22;441;51.192;6.788;2023-09-19T10:08:34;22.60;89.30
909;DHT22;441;51.192;6.788;2023-09-19T10:11:15;22.60;89.20
909;DHT22;441;51.192;6.788;2023-09-19T10:13:44;22.50;89.10
909;DHT22;441;51.192;6.788;2023-09-19T10:16:13;22.60;89.00
909;DHT22;441;51.192;6.788;2023-09-19T10:18:44;22.50;88.80
909;DHT22;441;51.192;6.788;2023-09-19T10:21:12;22.60;88.80
909;DHT22;441;51.192;6.788;2023-09-19T10:23:40;22.50;88.70
909;DHT22;441;51.192;6.788;2023-09-19T10:26:11;22.50;88.60
909;DHT22;441;51.192;6.788;2023-09-19T10:28:38;22.50;88.50
909;DHT22;441;51.192;6.788;2023-09-19T10:31:07;22.60;88.50
909;DHT22;441;51.192;6.788;2023-09-19T10:33:40;22.50;88.00
909;DHT22;441;51.192;6.788;2023-09-19T10:36:09;22.60;88.20
909;DHT22;441;51.192;6.788;2023-09-19T10:38:39;22.60;88.20
909;DHT22;441;51.192;6.788;2023-09-19T10:41:10;22.50;88.10
909;DHT22;441;51.192;6.788;2023-09-19T10:43:38;22.50;88.20
909;DHT22;441;51.192;6.788;2023-09-19T10:46:11;22.50;88.10
909;DHT22;441;51.192;6.788;2023-09-19T10:48:39;22.60;88.30
909;DHT22;441;51.192;6.788;2023-09-19T10:51:11;22.50;88.10
909;DHT22;441;51.192;6.788;2023-09-19T10:53:46;22.60;88.10
909;DHT22;441;51.192;6.788;2023-09-19T10:56:18;22.60;88.10
909;DHT22;441;51.192;6.788;2023-09-19T10:58:46;22.50;87.90
909;DHT22;441;51.192;6.788;2023-09-19T11:01:15;22.60;88.10
909;DHT22;441;51.192;6.788;2023-09-19T11:03:43;22.50;87.80
909;DHT22;441;51.192;6.788;2023-09-19T11:06:12;22.60;87.80
909;DHT22;441;51.192;6.788;2023-09-19T11:09:08;22.60;87.70
909;DHT22;441;51.192;6.788;2023-09-19T11:11:52;22.60;87.60
909;DHT22;441;51.192;6.788;2023-09-19T11:14:30;22.60;87.20
909;DHT22;441;51.192;6.788;2023-09-19T11:20:24;22.60;86.80
909;DHT22;441;51.192;6.788;2023-09-19T11:23:21;22.60;86.70
909;DHT22;441;51.192;6.788;2023-09-19T11:25:54;22.60;86.60
909;DHT22;441;51.192;6.788;2023-09-19T11:28:34;22.60;86.10
909;DHT22;441;51.192;6.788;2023-09-19T11:34:45;22.60;85.90
909;DHT22;441;51.192;6.788;2023-09-19T11:40:37;22.50;85.30
909;DHT22;441;51.192;6.788;2023-09-19T11:43:29;22.50;84.90
909;DHT22;441;51.192;6.788;2023-09-19T11:46:08;22.60;84.90
909;DHT22;441;51.192;6.788;2023-09-19T11:48:35;22.60;84.70
909;DHT22;441;51.192;6.788;2023-09-19T11:51:24;22.60;84.90
909;DHT22;441;51.192;6.788;2023-09-19T11:53:54;22.60;84.70
909;DHT22;441;51.192;6.788;2023-09-19T11:56:23;22.60;84.20
909;DHT22;441;51.192;6.788;2023-09-19T11:58:54;22.60;84.10
909;DHT22;441;51.192;6.788;2023-09-19T12:01:23;22.60;83.80
909;DHT22;441;51.192;6.788;2023-09-19T12:03:55;22.60;83.80
909;DHT22;441;51.192;6.788;2023-09-19T12:06:24;22.60;83.80
909;DHT22;441;51.192;6.788;2023-09-19T12:08:52;22.70;83.60
909;DHT22;441;51.192;6.788;2023-09-19T12:11:22;22.70;83.70
909;DHT22;441;51.192;6.788;2023-09-19T12:13:50;22.70;83.50
909;DHT22;441;51.192;6.788;2023-09-19T12:16:20;22.70;83.00
909;DHT22;441;51.192;6.788;2023-09-19T12:18:49;22.70;82.90
909;DHT22;441;51.192;6.788;2023-09-19T12:21:28;22.70;83.10
909;DHT22;441;51.192;6.788;2023-09-19T12:24:14;22.70;83.00
909;DHT22;441;51.192;6.788;2023-09-19T12:26:46;22.70;82.60
909;DHT22;441;51.192;6.788;2023-09-19T12:29:15;22.70;82.60
909;DHT22;441;51.192;6.788;2023-09-19T12:31:52;22.80;82.70
909;DHT22;441;51.192;6.788;2023-09-19T12:34:22;22.80;82.60
909;DHT22;441;51.192;6.788;2023-09-19T12:37:04;22.80;82.10
909;DHT22;441;51.192;6.788;2023-09-19T12:39:31;22.80;81.70
909;DHT22;441;51.192;6.788;2023-09-19T12:42:00;22.90;82.00
909;DHT22;441;51.192;6.788;2023-09-19T12:44:29;22.80;82.10
909;DHT22;441;51.192;6.788;2023-09-19T12:46:56;22.90;82.10
909;DHT22;441;51.192;6.788;2023-09-19T12:49:24;22.90;82.00
909;DHT22;441;51.192;6.788;2023-09-19T12:51:55;22.90;81.50
909;DHT22;441;51.192;6.788;2023-09-19T12:54:24;22.90;81.50
909;DHT22;441;51.192;6.788;2023-09-19T12:56:52;22.90;81.60
909;DHT22;441;51.192;6.788;2023-09-19T12:59:29;23.00;81.70
909;DHT22;441;51.192;6.788;2023-09-19T13:02:03;23.00;81.40
909;DHT22;441;51.192;6.788;2023-09-19T13:04:33;23.00;80.90
909;DHT22;441;51.192;6.788;2023-09-19T13:07:05;23.00;80.50
909;DHT22;441;51.192;6.788;2023-09-19T13:09:34;23.00;80.40
909;DHT22;441;51.192;6.788;2023-09-19T13:12:01;23.10;79.90
909;DHT22;441;51.192;6.788;2023-09-19T13:14:30;23.10;80.50
909;DHT22;441;51.192;6.788;2023-09-19T13:17:00;23.10;80.50
909;DHT22;441;51.192;6.788;2023-09-19T13:19:40;23.10;80.30
909;DHT22;441;51.192;6.788;2023-09-19T13:22:37;23.10;80.20
909;DHT22;441;51.192;6.788;2023-09-19T13:25:08;23.10;80.20
909;DHT22;441;51.192;6.788;2023-09-19T13:27:40;23.20;79.90
909;DHT22;441;51.192;6.788;2023-09-19T13:30:10;23.20;80.00
909;DHT22;441;51.192;6.788;2023-09-19T13:32:37;23.20;79.80
909;DHT22;441;51.192;6.788;2023-09-19T13:35:05;23.20;80.00
909;DHT22;441;51.192;6.788;2023-09-19T13:37:34;23.20;80.40
909;DHT22;441;51.192;6.788;2023-09-19T13:40:04;23.20;80.20
909;DHT22;441;51.192;6.788;2023-09-19T13:42:32;23.20;80.10
909;DHT22;441;51.192;6.788;2023-09-19T13:44:59;23.20;79.30
909;DHT22;441;51.192;6.788;2023-09-19T13:47:27;23.20;78.00
909;DHT22;441;51.192;6.788;2023-09-19T13:49:54;23.20;77.90
909;DHT22;441;51.192;6.788;2023-09-19T13:52:21;23.20;76.90
909;DHT22;441;51.192;6.788;2023-09-19T13:54:49;23.20;76.50
909;DHT22;441;51.192;6.788;2023-09-19T13:57:17;23.20;77.00
909;DHT22;441;51.192;6.788;2023-09-19T13:59:43;23.20;76.60
909;DHT22;441;51.192;6.788;2023-09-19T14:02:10;23.20;76.70
909;DHT22;441;51.192;6.788;2023-09-19T14:04:40;23.20;76.50
909;DHT22;441;51.192;6.788;2023-09-19T14:07:07;23.20;77.00
909;DHT22;441;51.192;6.788;2023-09-19T14:09:35;23.20;76.50
909;DHT22;441;51.192;6.788;2023-09-19T14:12:02;23.30;76.70
909;DHT22;441;51.192;6.788;2023-09-19T14:14:29;23.30;76.90
909;DHT22;441;51.192;6.788;2023-09-19T14:16:56;23.30;77.10
909;DHT22;441;51.192;6.788;2023-09-19T14:19:26;23.30;77.00
909;DHT22;441;51.192;6.788;2023-09-19T14:21:54;23.30;77.50
909;DHT22;441;51.192;6.788;2023-09-19T14:24:22;23.40;77.20
909;DHT22;441;51.192;6.788;2023-09-19T14:26:49;23.40;77.00
909;DHT22;441;51.192;6.788;2023-09-19T14:29:16;23.40;76.90
909;DHT22;441;51.192;6.788;2023-09-19T14:31:45;23.50;77.00
909;DHT22;441;51.192;6.788;2023-09-19T14:34:12;23.50;76.70
909;DHT22;441;51.192;6.788;2023-09-19T14:36:40;23.60;76.70
909;DHT22;441;51.192;6.788;2023-09-19T14:39:08;23.80;76.90
909;DHT22;441;51.192;6.788;2023-09-19T14:41:35;23.90;75.90
909;DHT22;441;51.192;6.788;2023-09-19T14:44:03;24.00;76.90
909;DHT22;441;51.192;6.788;2023-09-19T14:46:30;24.10;76.10
909;DHT22;441;51.192;6.788;2023-09-19T14:48:57;24.20;75.70
909;DHT22;441;51.192;6.788;2023-09-19T14:51:25;24.30;75.60
909;DHT22;441;51.192;6.788;2023-09-19T14:53:53;24.50;75.00
909;DHT22;441;51.192;6.788;2023-09-19T14:56:21;24.50;74.30
909;DHT22;441;51.192;6.788;2023-09-19T14:58:49;24.60;74.30
909;DHT22;441;51.192;6.788;2023-09-19T15:01:16;24.80;74.80
909;DHT22;441;51.192;6.788;2023-09-19T15:03:43;24.90;74.30
909;DHT22;441;51.192;6.788;2023-09-19T15:06:12;24.90;73.70
909;DHT22;441;51.192;6.788;2023-09-19T15:08:40;25.00;72.50
909;DHT22;441;51.192;6.788;2023-09-19T15:11:11;25.00;72.10
909;DHT22;441;51.192;6.788;2023-09-19T15:13:40;25.00;71.20
909;DHT22;441;51.192;6.788;2023-09-19T15:16:08;25.00;69.60
909;DHT22;441;51.192;6.788;2023-09-19T15:18:36;25.10;70.50
909;DHT22;441;51.192;6.788;2023-09-19T15:21:04;25.20;71.10
909;DHT22;441;51.192;6.788;2023-09-19T15:23:31;25.30;70.50
909;DHT22;441;51.192;6.788;2023-09-19T15:26:00;25.40;70.40
909;DHT22;441;51.192;6.788;2023-09-19T15:28:28;25.50;69.80
909;DHT22;441;51.192;6.788;2023-09-19T15:31:00;25.50;68.30
909;DHT22;441;51.192;6.788;2023-09-19T15:33:28;25.50;68.90
909;DHT22;441;51.192;6.788;2023-09-19T15:36:01;25.50;68.70
909;DHT22;441;51.192;6.788;2023-09-19T15:38:29;25.50;68.10
909;DHT22;441;51.192;6.788;2023-09-19T15:40:57;25.50;67.90
909;DHT22;441;51.192;6.788;2023-09-19T15:43:24;25.50;68.50
909;DHT22;441;51.192;6.788;2023-09-19T15:45:51;25.50;68.00
909;DHT22;441;51.192;6.788;2023-09-19T15:48:19;25.60;67.70
909;DHT22;441;51.192;6.788;2023-09-19T15:50:47;25.70;67.70
909;DHT22;441;51.192;6.788;2023-09-19T15:53:14;25.70;67.70
909;DHT22;441;51.192;6.788;2023-09-19T15:55:42;25.70;67.70
909;DHT22;441;51.192;6.788;2023-09-19T15:58:10;25.70;67.10
909;DHT22;441;51.192;6.788;2023-09-19T16:00:40;25.70;67.10
909;DHT22;441;51.192;6.788;2023-09-19T16:03:07;25.80;67.50
909;DHT22;441;51.192;6.788;2023-09-19T16:05:38;25.80;67.00
909;DHT22;441;51.192;6.788;2023-09-19T16:08:06;25.80;67.30
909;DHT22;441;51.192;6.788;2023-09-19T16:10:35;25.80;67.20
909;DHT22;441;51.192;6.788;2023-09-19T16:13:03;25.80;67.20
909;DHT22;441;51.192;6.788;2023-09-19T16:15:30;25.80;67.50
909;DHT22;441;51.192;6.788;2023-09-19T16:17:58;25.90;67.20
909;DHT22;441;51.192;6.788;2023-09-19T16:20:26;25.90;66.30
909;DHT22;441;51.192;6.788;2023-09-19T16:22:55;26.00;66.00
909;DHT22;441;51.192;6.788;2023-09-19T16:25:21;25.90;65.90
909;DHT22;441;51.192;6.788;2023-09-19T16:27:49;25.90;65.80
909;DHT22;441;51.192;6.788;2023-09-19T16:30:16;25.90;65.70
909;DHT22;441;51.192;6.788;2023-09-19T16:32:44;25.90;65.80
909;DHT22;441;51.192;6.788;2023-09-19T16:35:11;25.90;65.30
909;DHT22;441;51.192;6.788;2023-09-19T16:37:38;25.90;66.20
909;DHT22;441;51.192;6.788;2023-09-19T16:40:08;25.90;65.60
909;DHT22;441;51.192;6.788;2023-09-19T16:42:35;25.90;65.70
909;DHT22;441;51.192;6.788;2023-09-19T16:45:03;25.90;65.80
909;DHT22;441;51.192;6.788;2023-09-19T16:47:30;26.00;65.90
909;DHT22;441;51.192;6.788;2023-09-19T16:49:57;26.00;65.40
909;DHT22;441;51.192;6.788;2023-09-19T16:52:24;25.90;65.90
909;DHT22;441;51.192;6.788;2023-09-19T16:54:51;26.00;65.70
909;DHT22;441;51.192;6.788;2023-09-19T16:57:20;26.10;65.60
909;DHT22;441;51.192;6.788;2023-09-19T16:59:47;26.00;65.70